sensor_id;sensor_type;location;lat;lon;timestamp;P1;durP1;ratioP1;P2;durP2;ratioP2
70169;SDS011;57543;45.442;9.212;2022-10-31T00:00:41;18.98;;;11.27;;
70169;SDS011;57543;45.442;9.212;2022-10-31T00:03:44;24.48;;;12.75;;
70169;SDS011;57543;45.442;9.212;2022-10-31T00:06:48;24.00;;;11.70;;
70169;SDS011;57543;45.442;9.212;2022-10-31T00:09:52;22.00;;;11.13;;
70169;SDS011;57543;45.442;9.212;2022-10-31T00:12:55;23.87;;;11.40;;
70169;SDS011;57543;45.442;9.212;2022-10-31T00:15:59;21.48;;;11.35;;
70169;SDS011;57543;45.442;9.212;2022-10-31T00:19:03;27.73;;;12.23;;
70169;SDS011;57543;45.442;9.212;2022-10-31T00:22:09;23.23;;;12.02;;
70169;SDS011;57543;45.442;9.212;2022-10-31T00:25:12;24.63;;;12.23;;
70169;SDS011;57543;45.442;9.212;2022-10-31T00:28:16;24.60;;;12.00;;
70169;SDS011;57543;45.442;9.212;2022-10-31T00:31:20;23.70;;;12.07;;
70169;SDS011;57543;45.442;9.212;2022-10-31T00:34:24;24.20;;;12.63;;
70169;SDS011;57543;45.442;9.212;2022-10-31T00:37:28;22.48;;;11.90;;
70169;SDS011;57543;45.442;9.212;2022-10-31T00:40:31;24.63;;;12.00;;
70169;SDS011;57543;45.442;9.212;2022-10-31T00:43:35;23.57;;;11.73;;
70169;SDS011;57543;45.442;9.212;2022-10-31T00:46:38;22.70;;;12.50;;
70169;SDS011;57543;45.442;9.212;2022-10-31T00:49:42;24.30;;;12.15;;
70169;SDS011;57543;45.442;9.212;2022-10-31T00:52:45;23.38;;;12.50;;
70169;SDS011;57543;45.442;9.212;2022-10-31T00:55:49;22.80;;;13.15;;
70169;SDS011;57543;45.442;9.212;2022-10-31T00:58:53;23.43;;;12.57;;
70169;SDS011;57543;45.442;9.212;2022-10-31T01:01:57;25.25;;;13.38;;
70169;SDS011;57543;45.442;9.212;2022-10-31T01:05:01;23.98;;;12.38;;
70169;SDS011;57543;45.442;9.212;2022-10-31T01:08:05;23.52;;;12.93;;
70169;SDS011;57543;45.442;9.212;2022-10-31T01:11:13;25.58;;;13.13;;
70169;SDS011;57543;45.442;9.212;2022-10-31T01:14:19;24.87;;;13.43;;
70169;SDS011;57543;45.442;9.212;2022-10-31T01:17:23;23.83;;;12.68;;
70169;SDS011;57543;45.442;9.212;2022-10-31T01:20:26;25.50;;;12.25;;
70169;SDS011;57543;45.442;9.212;2022-10-31T01:23:30;23.85;;;13.05;;
70169;SDS011;57543;45.442;9.212;2022-10-31T01:26:34;23.08;;;12.88;;
70169;SDS011;57543;45.442;9.212;2022-10-31T01:29:37;23.83;;;12.80;;
70169;SDS011;57543;45.442;9.212;2022-10-31T01:32:40;23.02;;;12.65;;
70169;SDS011;57543;45.442;9.212;2022-10-31T01:35:44;21.63;;;12.70;;
70169;SDS011;57543;45.442;9.212;2022-10-31T01:38:48;21.63;;;12.57;;
70169;SDS011;57543;45.442;9.212;2022-10-31T01:41:53;25.00;;;12.82;;
70169;SDS011;57543;45.442;9.212;2022-10-31T01:45:00;22.07;;;12.50;;
70169;SDS011;57543;45.442;9.212;2022-10-31T01:48:04;21.23;;;12.77;;
70169;SDS011;57543;45.442;9.212;2022-10-31T01:51:09;24.63;;;11.82;;
70169;SDS011;57543;45.442;9.212;2022-10-31T01:54:16;23.35;;;13.10;;
70169;SDS011;57543;45.442;9.212;2022-10-31T01:57:23;20.23;;;11.52;;
70169;SDS011;57543;45.442;9.212;2022-10-31T02:00:28;21.70;;;12.00;;
70169;SDS011;57543;45.442;9.212;2022-10-31T02:03:32;22.70;;;12.45;;
70169;SDS011;57543;45.442;9.212;2022-10-31T02:06:41;22.13;;;12.60;;
70169;SDS011;57543;45.442;9.212;2022-10-31T02:09:49;25.17;;;12.13;;
70169;SDS011;57543;45.442;9.212;2022-10-31T02:12:55;21.40;;;12.43;;
70169;SDS011;57543;45.442;9.212;2022-10-31T02:16:00;22.97;;;12.30;;
70169;SDS011;57543;45.442;9.212;2022-10-31T02:19:04;23.33;;;12.35;;
70169;SDS011;57543;45.442;9.212;2022-10-31T02:22:23;22.52;;;12.95;;
70169;SDS011;57543;45.442;9.212;2022-10-31T02:29:04;21.95;;;11.80;;
70169;SDS011;57543;45.442;9.212;2022-10-31T02:32:27;22.10;;;11.60;;
70169;SDS011;57543;45.442;9.212;2022-10-31T02:35:49;23.38;;;11.75;;
70169;SDS011;57543;45.442;9.212;2022-10-31T02:45:40;24.55;;;13.20;;
70169;SDS011;57543;45.442;9.212;2022-10-31T02:48:54;22.37;;;11.87;;
70169;SDS011;57543;45.442;9.212;2022-10-31T02:52:13;23.92;;;11.60;;
70169;SDS011;57543;45.442;9.212;2022-10-31T02:58:38;21.80;;;12.45;;
70169;SDS011;57543;45.442;9.212;2022-10-31T03:09:11;25.02;;;11.55;;
70169;SDS011;57543;45.442;9.212;2022-10-31T03:15:30;24.08;;;11.93;;
70169;SDS011;57543;45.442;9.212;2022-10-31T03:18:40;23.00;;;11.95;;
70169;SDS011;57543;45.442;9.212;2022-10-31T03:21:53;23.50;;;11.83;;
70169;SDS011;57543;45.442;9.212;2022-10-31T03:25:04;22.75;;;12.15;;
70169;SDS011;57543;45.442;9.212;2022-10-31T03:28:11;22.95;;;11.43;;
70169;SDS011;57543;45.442;9.212;2022-10-31T03:31:16;21.33;;;12.85;;
70169;SDS011;57543;45.442;9.212;2022-10-31T03:34:23;19.70;;;11.50;;
70169;SDS011;57543;45.442;9.212;2022-10-31T03:37:27;22.47;;;10.83;;
70169;SDS011;57543;45.442;9.212;2022-10-31T03:40:33;22.38;;;10.70;;
70169;SDS011;57543;45.442;9.212;2022-10-31T03:43:40;25.30;;;11.10;;
70169;SDS011;57543;45.442;9.212;2022-10-31T03:46:47;25.88;;;10.88;;
70169;SDS011;57543;45.442;9.212;2022-10-31T03:49:51;22.13;;;10.68;;
70169;SDS011;57543;45.442;9.212;2022-10-31T03:52:57;21.60;;;10.70;;
70169;SDS011;57543;45.442;9.212;2022-10-31T03:56:11;21.25;;;10.20;;
70169;SDS011;57543;45.442;9.212;2022-10-31T03:59:22;17.90;;;9.82;;
70169;SDS011;57543;45.442;9.212;2022-10-31T04:02:31;17.50;;;9.43;;
70169;SDS011;57543;45.442;9.212;2022-10-31T04:05:38;18.83;;;10.07;;
70169;SDS011;57543;45.442;9.212;2022-10-31T04:08:48;18.80;;;9.90;;
70169;SDS011;57543;45.442;9.212;2022-10-31T04:11:56;16.13;;;9.43;;
70169;SDS011;57543;45.442;9.212;2022-10-31T04:15:31;17.48;;;9.70;;
70169;SDS011;57543;45.442;9.212;2022-10-31T04:18:36;17.83;;;8.95;;
70169;SDS011;57543;45.442;9.212;2022-10-31T04:21:39;18.48;;;10.00;;
70169;SDS011;57543;45.442;9.212;2022-10-31T04:24:43;18.50;;;9.87;;
70169;SDS011;57543;45.442;9.212;2022-10-31T04:27:51;17.95;;;9.80;;
70169;SDS011;57543;45.442;9.212;2022-10-31T04:30:55;19.67;;;9.52;;
70169;SDS011;57543;45.442;9.212;2022-10-31T04:33:59;17.25;;;9.38;;
70169;SDS011;57543;45.442;9.212;2022-10-31T04:37:03;16.80;;;9.27;;
70169;SDS011;57543;45.442;9.212;2022-10-31T04:40:07;17.33;;;9.27;;
70169;SDS011;57543;45.442;9.212;2022-10-31T04:43:29;19.30;;;9.20;;
70169;SDS011;57543;45.442;9.212;2022-10-31T04:46:37;19.10;;;9.25;;
70169;SDS011;57543;45.442;9.212;2022-10-31T04:49:40;17.20;;;9.48;;
70169;SDS011;57543;45.442;9.212;2022-10-31T04:52:45;16.25;;;9.45;;
70169;SDS011;57543;45.442;9.212;2022-10-31T04:55:52;17.33;;;9.50;;
70169;SDS011;57543;45.442;9.212;2022-10-31T04:59:00;18.95;;;9.95;;
70169;SDS011;57543;45.442;9.212;2022-10-31T05:02:09;18.00;;;9.35;;
70169;SDS011;57543;45.442;9.212;2022-10-31T05:05:24;19.27;;;10.15;;
70169;SDS011;57543;45.442;9.212;2022-10-31T05:08:30;16.85;;;10.05;;
70169;SDS011;57543;45.442;9.212;2022-10-31T05:11:34;19.37;;;10.20;;
70169;SDS011;57543;45.442;9.212;2022-10-31T05:14:51;18.45;;;10.40;;
70169;SDS011;57543;45.442;9.212;2022-10-31T05:18:15;20.80;;;11.25;;
70169;SDS011;57543;45.442;9.212;2022-10-31T05:21:37;19.85;;;11.25;;
70169;SDS011;57543;45.442;9.212;2022-10-31T05:24:40;17.92;;;10.13;;
70169;SDS011;57543;45.442;9.212;2022-10-31T05:27:47;17.90;;;10.70;;
70169;SDS011;57543;45.442;9.212;2022-10-31T05:30:52;18.85;;;10.45;;
70169;SDS011;57543;45.442;9.212;2022-10-31T05:33:55;19.10;;;11.52;;
70169;SDS011;57543;45.442;9.212;2022-10-31T05:37:17;22.20;;;10.82;;
70169;SDS011;57543;45.442;9.212;2022-10-31T05:40:21;19.20;;;10.43;;
70169;SDS011;57543;45.442;9.212;2022-10-31T05:43:25;20.77;;;10.70;;
70169;SDS011;57543;45.442;9.212;2022-10-31T05:46:29;20.35;;;10.77;;
70169;SDS011;57543;45.442;9.212;2022-10-31T05:49:39;18.77;;;11.57;;
70169;SDS011;57543;45.442;9.212;2022-10-31T05:53:02;18.60;;;10.93;;
70169;SDS011;57543;45.442;9.212;2022-10-31T05:56:12;20.55;;;12.15;;
70169;SDS011;57543;45.442;9.212;2022-10-31T05:59:16;20.37;;;11.27;;
70169;SDS011;57543;45.442;9.212;2022-10-31T06:02:21;19.38;;;10.93;;
70169;SDS011;57543;45.442;9.212;2022-10-31T06:05:53;19.63;;;11.35;;
70169;SDS011;57543;45.442;9.212;2022-10-31T06:08:57;20.30;;;11.00;;
70169;SDS011;57543;45.442;9.212;2022-10-31T06:12:03;23.10;;;12.18;;
70169;SDS011;57543;45.442;9.212;2022-10-31T06:15:41;20.13;;;11.57;;
70169;SDS011;57543;45.442;9.212;2022-10-31T06:18:46;20.58;;;11.38;;
70169;SDS011;57543;45.442;9.212;2022-10-31T06:21:50;19.58;;;11.95;;
70169;SDS011;57543;45.442;9.212;2022-10-31T06:24:54;23.92;;;11.50;;
70169;SDS011;57543;45.442;9.212;2022-10-31T06:28:07;22.63;;;12.27;;
70169;SDS011;57543;45.442;9.212;2022-10-31T06:31:21;19.40;;;11.00;;
70169;SDS011;57543;45.442;9.212;2022-10-31T06:34:24;21.55;;;12.10;;
70169;SDS011;57543;45.442;9.212;2022-10-31T06:37:28;19.58;;;11.48;;
70169;SDS011;57543;45.442;9.212;2022-10-31T06:40:38;21.98;;;11.25;;
70169;SDS011;57543;45.442;9.212;2022-10-31T06:43:57;24.50;;;11.48;;
70169;SDS011;57543;45.442;9.212;2022-10-31T06:47:24;18.47;;;10.57;;
70169;SDS011;57543;45.442;9.212;2022-10-31T06:50:35;21.20;;;12.15;;
70169;SDS011;57543;45.442;9.212;2022-10-31T06:53:39;19.52;;;11.45;;
70169;SDS011;57543;45.442;9.212;2022-10-31T06:56:45;25.88;;;11.25;;
70169;SDS011;57543;45.442;9.212;2022-10-31T06:59:50;20.08;;;10.93;;
70169;SDS011;57543;45.442;9.212;2022-10-31T07:03:09;20.60;;;11.37;;
70169;SDS011;57543;45.442;9.212;2022-10-31T07:06:14;24.27;;;11.32;;
70169;SDS011;57543;45.442;9.212;2022-10-31T07:09:18;21.65;;;11.80;;
70169;SDS011;57543;45.442;9.212;2022-10-31T07:12:23;19.90;;;11.05;;
70169;SDS011;57543;45.442;9.212;2022-10-31T07:15:34;20.45;;;11.02;;
70169;SDS011;57543;45.442;9.212;2022-10-31T07:18:39;18.47;;;10.47;;
70169;SDS011;57543;45.442;9.212;2022-10-31T07:21:43;21.13;;;9.70;;
70169;SDS011;57543;45.442;9.212;2022-10-31T07:24:50;17.48;;;10.23;;
70169;SDS011;57543;45.442;9.212;2022-10-31T07:28:23;21.02;;;10.30;;
70169;SDS011;57543;45.442;9.212;2022-10-31T07:31:28;17.10;;;10.32;;
70169;SDS011;57543;45.442;9.212;2022-10-31T07:34:37;17.07;;;10.10;;
70169;SDS011;57543;45.442;9.212;2022-10-31T07:38:13;21.10;;;10.60;;
70169;SDS011;57543;45.442;9.212;2022-10-31T07:41:18;17.77;;;10.23;;
70169;SDS011;57543;45.442;9.212;2022-10-31T07:44:23;17.95;;;10.30;;
70169;SDS011;57543;45.442;9.212;2022-10-31T07:47:48;19.10;;;10.57;;
70169;SDS011;57543;45.442;9.212;2022-10-31T07:51:20;16.73;;;10.73;;
70169;SDS011;57543;45.442;9.212;2022-10-31T07:54:42;19.67;;;11.10;;
70169;SDS011;57543;45.442;9.212;2022-10-31T07:57:46;15.73;;;9.68;;
70169;SDS011;57543;45.442;9.212;2022-10-31T08:00:58;18.45;;;10.63;;
70169;SDS011;57543;45.442;9.212;2022-10-31T08:04:10;18.88;;;9.80;;
70169;SDS011;57543;45.442;9.212;2022-10-31T08:07:46;16.83;;;9.53;;
70169;SDS011;57543;45.442;9.212;2022-10-31T08:10:57;20.63;;;10.80;;
70169;SDS011;57543;45.442;9.212;2022-10-31T08:14:01;16.85;;;10.38;;
70169;SDS011;57543;45.442;9.212;2022-10-31T08:17:04;14.80;;;9.63;;
70169;SDS011;57543;45.442;9.212;2022-10-31T08:20:18;19.08;;;10.55;;
70169;SDS011;57543;45.442;9.212;2022-10-31T08:23:23;14.97;;;10.37;;
70169;SDS011;57543;45.442;9.212;2022-10-31T08:26:29;17.75;;;10.93;;
70169;SDS011;57543;45.442;9.212;2022-10-31T08:29:35;21.58;;;11.30;;
70169;SDS011;57543;45.442;9.212;2022-10-31T08:32:38;18.92;;;11.20;;
70169;SDS011;57543;45.442;9.212;2022-10-31T08:36:01;23.10;;;12.95;;
70169;SDS011;57543;45.442;9.212;2022-10-31T08:39:23;21.57;;;11.70;;
70169;SDS011;57543;45.442;9.212;2022-10-31T08:42:28;24.35;;;12.13;;
70169;SDS011;57543;45.442;9.212;2022-10-31T08:45:32;22.85;;;13.32;;
70169;SDS011;57543;45.442;9.212;2022-10-31T08:48:36;23.38;;;12.57;;
70169;SDS011;57543;45.442;9.212;2022-10-31T08:51:41;24.52;;;12.90;;
70169;SDS011;57543;45.442;9.212;2022-10-31T08:54:44;21.57;;;12.87;;
70169;SDS011;57543;45.442;9.212;2022-10-31T08:58:09;23.05;;;12.90;;
70169;SDS011;57543;45.442;9.212;2022-10-31T09:01:23;25.85;;;13.48;;
70169;SDS011;57543;45.442;9.212;2022-10-31T09:04:27;23.00;;;13.43;;
70169;SDS011;57543;45.442;9.212;2022-10-31T09:07:30;21.42;;;13.27;;
70169;SDS011;57543;45.442;9.212;2022-10-31T09:10:36;22.37;;;13.83;;
70169;SDS011;57543;45.442;9.212;2022-10-31T09:13:40;25.13;;;13.52;;
70169;SDS011;57543;45.442;9.212;2022-10-31T09:17:04;22.73;;;13.07;;
70169;SDS011;57543;45.442;9.212;2022-10-31T09:20:24;23.15;;;13.23;;
70169;SDS011;57543;45.442;9.212;2022-10-31T09:23:29;21.70;;;13.15;;
70169;SDS011;57543;45.442;9.212;2022-10-31T09:26:33;25.00;;;13.07;;
70169;SDS011;57543;45.442;9.212;2022-10-31T09:29:56;23.38;;;13.20;;
70169;SDS011;57543;45.442;9.212;2022-10-31T09:33:04;26.20;;;11.57;;
70169;SDS011;57543;45.442;9.212;2022-10-31T09:36:10;20.38;;;11.50;;
70169;SDS011;57543;45.442;9.212;2022-10-31T09:39:17;21.48;;;11.60;;
70169;SDS011;57543;45.442;9.212;2022-10-31T09:52:30;21.05;;;11.93;;
70169;SDS011;57543;45.442;9.212;2022-10-31T09:55:42;23.83;;;13.90;;
70169;SDS011;57543;45.442;9.212;2022-10-31T09:58:50;22.77;;;12.67;;
70169;SDS011;57543;45.442;9.212;2022-10-31T10:01:59;23.25;;;11.55;;
70169;SDS011;57543;45.442;9.212;2022-10-31T10:05:11;20.67;;;12.70;;
70169;SDS011;57543;45.442;9.212;2022-10-31T10:08:23;20.52;;;12.65;;
70169;SDS011;57543;45.442;9.212;2022-10-31T10:18:18;23.67;;;11.75;;
70169;SDS011;57543;45.442;9.212;2022-10-31T10:25:08;21.77;;;12.50;;
70169;SDS011;57543;45.442;9.212;2022-10-31T10:28:29;23.73;;;13.70;;
70169;SDS011;57543;45.442;9.212;2022-10-31T10:31:41;26.27;;;13.67;;
70169;SDS011;57543;45.442;9.212;2022-10-31T10:34:53;23.55;;;13.95;;
70169;SDS011;57543;45.442;9.212;2022-10-31T10:41:43;22.13;;;12.15;;
70169;SDS011;57543;45.442;9.212;2022-10-31T10:44:50;21.98;;;11.95;;
70169;SDS011;57543;45.442;9.212;2022-10-31T10:48:16;20.63;;;10.77;;
70169;SDS011;57543;45.442;9.212;2022-10-31T10:51:41;19.95;;;10.00;;
70169;SDS011;57543;45.442;9.212;2022-10-31T10:58:03;17.08;;;9.23;;
70169;SDS011;57543;45.442;9.212;2022-10-31T11:01:10;26.10;;;10.70;;
70169;SDS011;57543;45.442;9.212;2022-10-31T11:04:26;20.03;;;10.40;;
70169;SDS011;57543;45.442;9.212;2022-10-31T11:07:37;19.40;;;8.20;;
70169;SDS011;57543;45.442;9.212;2022-10-31T11:10:42;17.50;;;8.35;;
70169;SDS011;57543;45.442;9.212;2022-10-31T11:13:48;21.02;;;9.90;;
70169;SDS011;57543;45.442;9.212;2022-10-31T11:16:55;21.33;;;10.02;;
70169;SDS011;57543;45.442;9.212;2022-10-31T11:23:16;15.50;;;7.07;;
70169;SDS011;57543;45.442;9.212;2022-10-31T11:26:22;16.67;;;7.60;;
70169;SDS011;57543;45.442;9.212;2022-10-31T11:29:25;14.25;;;7.15;;
70169;SDS011;57543;45.442;9.212;2022-10-31T11:32:29;15.18;;;6.38;;
70169;SDS011;57543;45.442;9.212;2022-10-31T11:35:33;14.90;;;6.93;;
70169;SDS011;57543;45.442;9.212;2022-10-31T11:38:43;14.60;;;5.75;;
70169;SDS011;57543;45.442;9.212;2022-10-31T11:41:47;12.40;;;5.93;;
70169;SDS011;57543;45.442;9.212;2022-10-31T11:44:52;11.80;;;5.50;;
70169;SDS011;57543;45.442;9.212;2022-10-31T11:47:57;13.98;;;6.18;;
70169;SDS011;57543;45.442;9.212;2022-10-31T11:51:04;12.67;;;5.03;;
70169;SDS011;57543;45.442;9.212;2022-10-31T11:54:15;12.88;;;5.20;;
70169;SDS011;57543;45.442;9.212;2022-10-31T11:57:26;12.80;;;5.20;;
70169;SDS011;57543;45.442;9.212;2022-10-31T12:00:48;11.63;;;5.70;;
70169;SDS011;57543;45.442;9.212;2022-10-31T12:07:11;15.90;;;6.47;;
70169;SDS011;57543;45.442;9.212;2022-10-31T12:10:15;13.68;;;5.88;;
70169;SDS011;57543;45.442;9.212;2022-10-31T12:13:30;11.98;;;5.63;;
70169;SDS011;57543;45.442;9.212;2022-10-31T12:16:52;11.48;;;5.75;;
70169;SDS011;57543;45.442;9.212;2022-10-31T12:20:17;11.60;;;5.65;;
70169;SDS011;57543;45.442;9.212;2022-10-31T12:33:30;13.02;;;5.90;;
70169;SDS011;57543;45.442;9.212;2022-10-31T12:40:44;16.23;;;6.03;;
70169;SDS011;57543;45.442;9.212;2022-10-31T12:44:34;15.38;;;5.40;;
70169;SDS011;57543;45.442;9.212;2022-10-31T12:51:45;15.98;;;6.35;;
70169;SDS011;57543;45.442;9.212;2022-10-31T12:55:08;13.27;;;5.53;;
70169;SDS011;57543;45.442;9.212;2022-10-31T12:58:21;13.43;;;5.70;;
70169;SDS011;57543;45.442;9.212;2022-10-31T13:01:30;16.20;;;5.40;;
70169;SDS011;57543;45.442;9.212;2022-10-31T13:04:54;12.10;;;4.90;;
70169;SDS011;57543;45.442;9.212;2022-10-31T13:08:03;14.98;;;5.25;;
70169;SDS011;57543;45.442;9.212;2022-10-31T13:11:15;12.65;;;5.32;;
70169;SDS011;57543;45.442;9.212;2022-10-31T13:14:25;11.30;;;4.73;;
70169;SDS011;57543;45.442;9.212;2022-10-31T13:17:40;13.82;;;4.43;;
70169;SDS011;57543;45.442;9.212;2022-10-31T13:20:53;12.77;;;4.30;;
70169;SDS011;57543;45.442;9.212;2022-10-31T13:24:01;12.73;;;4.63;;
70169;SDS011;57543;45.442;9.212;2022-10-31T13:27:18;10.85;;;5.30;;
70169;SDS011;57543;45.442;9.212;2022-10-31T13:30:32;11.73;;;4.50;;
70169;SDS011;57543;45.442;9.212;2022-10-31T13:33:40;10.25;;;4.40;;
70169;SDS011;57543;45.442;9.212;2022-10-31T13:43:26;11.13;;;4.95;;
70169;SDS011;57543;45.442;9.212;2022-10-31T13:49:38;13.63;;;4.80;;
70169;SDS011;57543;45.442;9.212;2022-10-31T13:52:42;12.50;;;4.80;;
70169;SDS011;57543;45.442;9.212;2022-10-31T13:55:47;14.10;;;5.40;;
70169;SDS011;57543;45.442;9.212;2022-10-31T14:02:13;12.40;;;4.83;;
70169;SDS011;57543;45.442;9.212;2022-10-31T14:05:26;11.80;;;4.25;;
70169;SDS011;57543;45.442;9.212;2022-10-31T14:08:34;10.10;;;4.60;;
70169;SDS011;57543;45.442;9.212;2022-10-31T14:11:41;14.57;;;5.20;;
70169;SDS011;57543;45.442;9.212;2022-10-31T14:14:50;12.13;;;4.90;;
70169;SDS011;57543;45.442;9.212;2022-10-31T14:18:06;14.50;;;5.30;;
70169;SDS011;57543;45.442;9.212;2022-10-31T14:24:32;9.95;;;5.00;;
70169;SDS011;57543;45.442;9.212;2022-10-31T14:27:44;9.68;;;4.32;;
70169;SDS011;57543;45.442;9.212;2022-10-31T14:30:56;12.52;;;4.68;;
70169;SDS011;57543;45.442;9.212;2022-10-31T14:40:53;16.17;;;5.13;;
70169;SDS011;57543;45.442;9.212;2022-10-31T14:44:21;14.32;;;4.97;;
70169;SDS011;57543;45.442;9.212;2022-10-31T14:50:48;16.30;;;4.93;;
70169;SDS011;57543;45.442;9.212;2022-10-31T14:53:53;10.55;;;4.50;;
70169;SDS011;57543;45.442;9.212;2022-10-31T14:57:05;13.43;;;4.78;;
70169;SDS011;57543;45.442;9.212;2022-10-31T15:00:23;12.50;;;5.47;;
70169;SDS011;57543;45.442;9.212;2022-10-31T15:06:38;13.87;;;4.37;;
70169;SDS011;57543;45.442;9.212;2022-10-31T15:09:54;10.40;;;4.22;;
70169;SDS011;57543;45.442;9.212;2022-10-31T15:16:33;13.60;;;4.38;;
70169;SDS011;57543;45.442;9.212;2022-10-31T15:19:38;13.82;;;6.30;;
70169;SDS011;57543;45.442;9.212;2022-10-31T15:22:42;10.70;;;4.33;;
70169;SDS011;57543;45.442;9.212;2022-10-31T15:25:49;11.30;;;4.63;;
70169;SDS011;57543;45.442;9.212;2022-10-31T15:28:59;12.45;;;4.55;;
70169;SDS011;57543;45.442;9.212;2022-10-31T15:32:18;14.18;;;4.70;;
70169;SDS011;57543;45.442;9.212;2022-10-31T15:35:30;10.75;;;4.30;;
70169;SDS011;57543;45.442;9.212;2022-10-31T15:38:33;13.90;;;4.43;;
70169;SDS011;57543;45.442;9.212;2022-10-31T15:45:00;10.35;;;4.90;;
70169;SDS011;57543;45.442;9.212;2022-10-31T15:48:17;11.30;;;4.68;;
70169;SDS011;57543;45.442;9.212;2022-10-31T15:51:26;12.23;;;4.88;;
70169;SDS011;57543;45.442;9.212;2022-10-31T15:54:32;13.73;;;5.47;;
70169;SDS011;57543;45.442;9.212;2022-10-31T15:57:39;14.88;;;4.82;;
70169;SDS011;57543;45.442;9.212;2022-10-31T16:01:05;15.68;;;4.60;;
70169;SDS011;57543;45.442;9.212;2022-10-31T16:04:22;10.55;;;4.93;;
70169;SDS011;57543;45.442;9.212;2022-10-31T16:07:27;10.95;;;4.78;;
70169;SDS011;57543;45.442;9.212;2022-10-31T16:10:33;13.27;;;5.30;;
70169;SDS011;57543;45.442;9.212;2022-10-31T16:13:51;10.93;;;5.00;;
70169;SDS011;57543;45.442;9.212;2022-10-31T16:16:58;15.85;;;5.20;;
70169;SDS011;57543;45.442;9.212;2022-10-31T16:20:05;14.23;;;5.78;;
70169;SDS011;57543;45.442;9.212;2022-10-31T16:23:14;13.70;;;5.00;;
70169;SDS011;57543;45.442;9.212;2022-10-31T16:26:20;10.07;;;4.83;;
70169;SDS011;57543;45.442;9.212;2022-10-31T16:29:25;14.60;;;4.80;;
70169;SDS011;57543;45.442;9.212;2022-10-31T16:32:37;14.63;;;5.18;;
70169;SDS011;57543;45.442;9.212;2022-10-31T16:35:56;9.60;;;4.60;;
70169;SDS011;57543;45.442;9.212;2022-10-31T16:39:01;10.93;;;4.78;;
70169;SDS011;57543;45.442;9.212;2022-10-31T16:42:07;11.73;;;5.10;;
70169;SDS011;57543;45.442;9.212;2022-10-31T16:45:18;13.05;;;4.47;;
70169;SDS011;57543;45.442;9.212;2022-10-31T16:48:51;10.52;;;4.35;;
70169;SDS011;57543;45.442;9.212;2022-10-31T16:51:55;12.80;;;4.85;;
70169;SDS011;57543;45.442;9.212;2022-10-31T16:54:59;14.02;;;5.22;;
70169;SDS011;57543;45.442;9.212;2022-10-31T16:58:03;13.40;;;5.13;;
70169;SDS011;57543;45.442;9.212;2022-10-31T17:01:07;11.57;;;5.38;;
70169;SDS011;57543;45.442;9.212;2022-10-31T17:04:13;12.40;;;5.20;;
70169;SDS011;57543;45.442;9.212;2022-10-31T17:07:17;11.95;;;5.25;;
70169;SDS011;57543;45.442;9.212;2022-10-31T17:10:21;9.80;;;5.03;;
70169;SDS011;57543;45.442;9.212;2022-10-31T17:13:26;14.53;;;5.50;;
70169;SDS011;57543;45.442;9.212;2022-10-31T17:16:32;12.18;;;4.88;;
70169;SDS011;57543;45.442;9.212;2022-10-31T17:19:36;14.75;;;5.50;;
70169;SDS011;57543;45.442;9.212;2022-10-31T17:22:39;12.73;;;5.30;;
70169;SDS011;57543;45.442;9.212;2022-10-31T17:25:43;15.25;;;5.60;;
70169;SDS011;57543;45.442;9.212;2022-10-31T17:28:47;15.80;;;5.30;;
70169;SDS011;57543;45.442;9.212;2022-10-31T17:31:53;13.23;;;5.38;;
70169;SDS011;57543;45.442;9.212;2022-10-31T17:34:57;17.30;;;5.70;;
70169;SDS011;57543;45.442;9.212;2022-10-31T17:38:00;12.98;;;5.20;;
70169;SDS011;57543;45.442;9.212;2022-10-31T17:41:04;13.25;;;5.40;;
70169;SDS011;57543;45.442;9.212;2022-10-31T17:44:09;15.93;;;5.63;;
70169;SDS011;57543;45.442;9.212;2022-10-31T17:47:13;18.27;;;5.45;;
70169;SDS011;57543;45.442;9.212;2022-10-31T17:50:18;12.93;;;5.20;;
70169;SDS011;57543;45.442;9.212;2022-10-31T17:53:27;15.18;;;5.85;;
70169;SDS011;57543;45.442;9.212;2022-10-31T17:56:32;15.90;;;5.80;;
70169;SDS011;57543;45.442;9.212;2022-10-31T17:59:36;16.87;;;5.33;;
70169;SDS011;57543;45.442;9.212;2022-10-31T18:02:40;11.45;;;4.75;;
70169;SDS011;57543;45.442;9.212;2022-10-31T18:05:54;13.68;;;6.47;;
70169;SDS011;57543;45.442;9.212;2022-10-31T18:09:02;15.90;;;5.97;;
70169;SDS011;57543;45.442;9.212;2022-10-31T18:12:06;19.15;;;5.95;;
70169;SDS011;57543;45.442;9.212;2022-10-31T18:15:10;18.37;;;6.30;;
70169;SDS011;57543;45.442;9.212;2022-10-31T18:18:14;15.45;;;6.40;;
70169;SDS011;57543;45.442;9.212;2022-10-31T18:21:18;12.90;;;6.03;;
70169;SDS011;57543;45.442;9.212;2022-10-31T18:24:22;15.18;;;6.13;;
70169;SDS011;57543;45.442;9.212;2022-10-31T18:27:26;12.48;;;6.78;;
70169;SDS011;57543;45.442;9.212;2022-10-31T18:30:30;13.00;;;6.37;;
70169;SDS011;57543;45.442;9.212;2022-10-31T18:33:34;13.32;;;6.18;;
70169;SDS011;57543;45.442;9.212;2022-10-31T18:36:40;15.50;;;6.95;;
70169;SDS011;57543;45.442;9.212;2022-10-31T18:39:43;17.50;;;7.00;;
70169;SDS011;57543;45.442;9.212;2022-10-31T18:42:48;14.73;;;6.72;;
70169;SDS011;57543;45.442;9.212;2022-10-31T18:45:51;13.47;;;6.73;;
70169;SDS011;57543;45.442;9.212;2022-10-31T18:48:54;16.85;;;6.70;;
70169;SDS011;57543;45.442;9.212;2022-10-31T18:51:58;16.52;;;6.75;;
70169;SDS011;57543;45.442;9.212;2022-10-31T18:55:02;15.23;;;7.85;;
70169;SDS011;57543;45.442;9.212;2022-10-31T18:58:07;17.25;;;7.22;;
70169;SDS011;57543;45.442;9.212;2022-10-31T19:01:11;19.37;;;7.93;;
70169;SDS011;57543;45.442;9.212;2022-10-31T19:04:15;18.75;;;8.23;;
70169;SDS011;57543;45.442;9.212;2022-10-31T19:07:25;15.15;;;7.45;;
70169;SDS011;57543;45.442;9.212;2022-10-31T19:10:38;17.67;;;7.97;;
70169;SDS011;57543;45.442;9.212;2022-10-31T19:13:42;14.60;;;7.55;;
70169;SDS011;57543;45.442;9.212;2022-10-31T19:16:46;18.33;;;8.80;;
70169;SDS011;57543;45.442;9.212;2022-10-31T19:19:49;18.02;;;8.65;;
70169;SDS011;57543;45.442;9.212;2022-10-31T19:22:53;16.73;;;7.90;;
70169;SDS011;57543;45.442;9.212;2022-10-31T19:25:57;16.85;;;8.23;;
70169;SDS011;57543;45.442;9.212;2022-10-31T19:29:02;24.38;;;8.35;;
70169;SDS011;57543;45.442;9.212;2022-10-31T19:32:06;17.17;;;8.13;;
70169;SDS011;57543;45.442;9.212;2022-10-31T19:35:10;20.75;;;8.50;;
70169;SDS011;57543;45.442;9.212;2022-10-31T19:38:14;19.77;;;9.02;;
70169;SDS011;57543;45.442;9.212;2022-10-31T19:41:19;19.23;;;9.23;;
70169;SDS011;57543;45.442;9.212;2022-10-31T19:44:23;18.45;;;8.90;;
70169;SDS011;57543;45.442;9.212;2022-10-31T19:47:27;19.00;;;8.50;;
70169;SDS011;57543;45.442;9.212;2022-10-31T19:50:30;18.75;;;8.75;;
70169;SDS011;57543;45.442;9.212;2022-10-31T19:53:34;20.08;;;9.00;;
70169;SDS011;57543;45.442;9.212;2022-10-31T19:56:38;22.65;;;9.85;;
70169;SDS011;57543;45.442;9.212;2022-10-31T19:59:42;17.13;;;9.55;;
70169;SDS011;57543;45.442;9.212;2022-10-31T20:02:45;20.20;;;9.80;;
70169;SDS011;57543;45.442;9.212;2022-10-31T20:05:49;23.70;;;10.02;;
70169;SDS011;57543;45.442;9.212;2022-10-31T20:08:54;21.23;;;9.85;;
70169;SDS011;57543;45.442;9.212;2022-10-31T20:11:58;19.23;;;10.27;;
70169;SDS011;57543;45.442;9.212;2022-10-31T20:15:02;18.70;;;10.25;;
70169;SDS011;57543;45.442;9.212;2022-10-31T20:18:05;21.20;;;10.00;;
70169;SDS011;57543;45.442;9.212;2022-10-31T20:21:11;19.77;;;9.18;;
70169;SDS011;57543;45.442;9.212;2022-10-31T20:24:16;24.75;;;10.98;;